createdAt,value
2024-03-05T00:00:59.888Z,57.78
2024-03-05T00:03:02.897Z,57.90
2024-03-05T00:05:07.982Z,57.98
2024-03-05T00:07:11.363Z,58.25
2024-03-05T00:09:14.339Z,57.67
2024-03-05T00:11:17.370Z,58.57
2024-03-05T00:13:20.231Z,58.31
2024-03-05T00:15:23.434Z,58.23
2024-03-05T00:17:26.141Z,58.65
2024-03-05T00:19:28.916Z,58.23
2024-03-05T00:21:33.231Z,58.56
2024-03-05T00:23:35.991Z,58.35
2024-03-05T00:25:38.762Z,58.52
2024-03-05T00:27:41.700Z,58.62
2024-03-05T00:29:44.396Z,58.81
2024-03-05T00:31:48.253Z,58.71
2024-03-05T00:33:51.074Z,58.54
2024-03-05T00:35:54.492Z,59.00
2024-03-05T00:37:57.422Z,59.32
2024-03-05T00:40:00.256Z,59.04
2024-03-05T00:42:04.387Z,59.06
2024-03-05T00:44:07.109Z,59.74
2024-03-05T00:46:09.899Z,59.08
2024-03-05T00:48:12.589Z,59.12
2024-03-05T00:50:15.450Z,58.62
2024-03-05T00:52:18.180Z,59.29
2024-03-05T00:54:20.931Z,58.99
2024-03-05T00:56:24.204Z,59.26
2024-03-05T00:58:27.628Z,59.51
2024-03-05T01:00:30.535Z,59.36
2024-03-05T01:02:33.367Z,59.97
2024-03-05T01:04:36.138Z,59.77
2024-03-05T01:06:38.815Z,59.85
2024-03-05T01:08:41.572Z,59.89
2024-03-05T01:10:46.751Z,59.53
2024-03-05T01:12:51.219Z,59.22
2024-03-05T01:14:53.925Z,59.92
2024-03-05T01:16:56.721Z,59.79
2024-03-05T01:19:00.825Z,60.06
2024-03-05T01:21:03.883Z,60.38
2024-03-05T01:23:06.755Z,60.00
2024-03-05T01:25:10.516Z,60.08
2024-03-05T01:27:13.250Z,60.41
2024-03-05T01:29:18.750Z,60.20
2024-03-05T01:31:21.522Z,60.02
2024-03-05T01:33:24.282Z,60.58
2024-03-05T01:35:27.005Z,59.94
2024-03-05T01:37:29.753Z,59.77
2024-03-05T01:39:32.541Z,59.83
2024-03-05T01:41:35.281Z,59.90
2024-03-05T01:43:38.123Z,59.73
2024-03-05T01:45:40.820Z,59.34
2024-03-05T01:47:45.651Z,59.96
2024-03-05T01:49:48.550Z,59.89
2024-03-05T01:51:55.245Z,59.98
2024-03-05T01:53:59.973Z,60.15
2024-03-05T01:56:02.927Z,60.19
2024-03-05T01:58:08.340Z,60.41
2024-03-05T02:00:13.007Z,60.25
2024-03-05T02:02:15.861Z,60.51
2024-03-05T02:04:19.060Z,60.01
2024-03-05T02:06:24.167Z,60.34
2024-03-05T02:08:28.910Z,60.16
2024-03-05T02:10:32.125Z,60.26
2024-03-05T02:12:37.100Z,60.28
2024-03-05T02:14:40.865Z,60.02
2024-03-05T02:16:43.903Z,60.50
2024-03-05T02:18:47.167Z,60.11
2024-03-05T02:20:50.513Z,59.94
2024-03-05T02:22:53.371Z,60.46
2024-03-05T02:24:57.174Z,60.46
2024-03-05T02:27:04.458Z,60.47
2024-03-05T02:29:10.505Z,60.36
2024-03-05T02:31:14.804Z,60.77
2024-03-05T02:33:18.082Z,60.52
2024-03-05T02:35:20.826Z,60.95
2024-03-05T02:37:23.563Z,61.04
2024-03-05T02:39:28.579Z,61.05
2024-03-05T02:41:31.400Z,61.07
2024-03-05T02:43:35.068Z,61.51
2024-03-05T02:45:37.883Z,61.43
2024-03-05T02:47:44.181Z,61.81
2024-03-05T02:49:47.176Z,62.03
2024-03-05T02:51:50.303Z,61.76
2024-03-05T02:53:53.029Z,61.70
2024-03-05T02:55:55.793Z,61.72
2024-03-05T02:57:58.600Z,61.91
2024-03-05T03:00:01.367Z,62.38
2024-03-05T03:02:04.832Z,62.32
2024-03-05T03:04:07.666Z,62.25
2024-03-05T03:06:17.843Z,62.72
2024-03-05T03:08:20.678Z,62.19
2024-03-05T03:10:24.242Z,62.72
2024-03-05T03:12:27.471Z,63.10
2024-03-05T03:14:30.139Z,63.13
2024-03-05T03:16:32.828Z,63.32
2024-03-05T03:18:35.603Z,63.06
2024-03-05T03:20:38.274Z,62.98
2024-03-05T03:22:40.952Z,62.72
2024-03-05T03:24:44.042Z,63.03
2024-03-05T03:26:46.695Z,63.29
2024-03-05T03:28:49.955Z,63.25
2024-03-05T03:30:56.415Z,63.52
2024-03-05T03:33:00.116Z,63.30
2024-03-05T03:35:07.277Z,63.20
2024-03-05T03:37:10.263Z,63.06
2024-03-05T03:39:13.232Z,63.43
2024-03-05T03:41:16.550Z,63.32
2024-03-05T03:43:19.340Z,63.44
2024-03-05T03:45:22.879Z,63.28
2024-03-05T03:47:25.655Z,62.91
2024-03-05T03:49:28.470Z,62.86
2024-03-05T03:51:31.152Z,62.33
2024-03-05T03:53:38.190Z,62.57
2024-03-05T03:55:41.045Z,62.66
2024-03-05T03:57:43.820Z,62.33
2024-03-05T03:59:46.561Z,62.62
2024-03-05T04:01:51.331Z,62.27
2024-03-05T04:03:54.169Z,62.44
2024-03-05T04:05:57.524Z,62.13
2024-03-05T04:08:04.719Z,62.53
2024-03-05T04:10:09.293Z,61.93
2024-03-05T04:12:14.415Z,62.26
2024-03-05T04:14:17.210Z,61.96
2024-03-05T04:16:20.546Z,62.32
2024-03-05T04:18:23.220Z,62.49
2024-03-05T04:20:26.665Z,62.15
2024-03-05T04:22:29.934Z,62.62
2024-03-05T04:24:32.923Z,62.48
2024-03-05T04:26:39.197Z,62.40
2024-03-05T04:28:50.758Z,62.54
2024-03-05T04:30:54.025Z,62.64
2024-03-05T04:33:05.439Z,62.33
2024-03-05T04:35:12.658Z,62.34
2024-03-05T04:37:15.583Z,62.42
2024-03-05T04:39:18.279Z,62.15
2024-03-05T04:41:20.984Z,62.35
2024-03-05T04:43:23.734Z,61.99
2024-03-05T04:45:27.022Z,62.41
2024-03-05T04:47:31.010Z,62.02
2024-03-05T04:49:33.801Z,62.23
2024-03-05T04:51:36.489Z,61.73
2024-03-05T04:53:39.708Z,62.05
2024-03-05T04:55:42.440Z,61.89
2024-03-05T04:57:45.153Z,62.04
2024-03-05T04:59:49.339Z,62.15
2024-03-05T05:01:53.400Z,62.24
2024-03-05T05:03:56.125Z,61.92
2024-03-05T05:05:58.909Z,62.01
2024-03-05T05:08:03.302Z,61.66
2024-03-05T05:10:08.832Z,61.21
2024-03-05T05:12:12.916Z,61.39
2024-03-05T05:14:15.638Z,61.24
2024-03-05T05:16:18.563Z,60.94
2024-03-05T05:18:21.695Z,60.62
2024-03-05T05:20:24.445Z,60.66
2024-03-05T05:22:27.281Z,60.34
2024-03-05T05:24:30.134Z,59.91
2024-03-05T05:26:32.836Z,60.19
2024-03-05T05:28:36.022Z,59.98
2024-03-05T05:30:38.733Z,59.94
2024-03-05T05:32:41.650Z,59.37
2024-03-05T05:34:44.924Z,59.26
2024-03-05T05:36:47.965Z,58.98
2024-03-05T05:38:51.749Z,58.89
2024-03-05T05:40:54.931Z,58.76
2024-03-05T05:42:59.856Z,58.49
2024-03-05T05:45:09.276Z,58.23
2024-03-05T05:47:12.915Z,57.98
2024-03-05T05:49:21.333Z,58.08
2024-03-05T05:51:25.451Z,58.06
2024-03-05T05:53:28.612Z,57.80
2024-03-05T05:55:31.531Z,57.33
2024-03-05T05:57:34.355Z,57.30
2024-03-05T05:59:37.844Z,57.40
2024-03-05T06:01:42.385Z,57.31
2024-03-05T06:03:48.143Z,57.11
2024-03-05T06:05:50.861Z,57.54
2024-03-05T06:07:54.013Z,56.49
2024-03-05T06:09:56.782Z,57.32
2024-03-05T06:12:00.458Z,56.78
2024-03-05T06:14:03.956Z,56.36
2024-03-05T06:16:09.075Z,56.21
2024-03-05T06:18:12.363Z,56.00
2024-03-05T06:20:16.188Z,55.53
2024-03-05T06:22:23.268Z,55.43
2024-03-05T06:24:29.905Z,56.06
2024-03-05T06:26:36.735Z,56.23
2024-03-05T06:28:39.544Z,56.01
2024-03-05T06:30:47.513Z,56.37
2024-03-05T06:32:53.310Z,56.18
2024-03-05T06:34:56.957Z,56.68
2024-03-05T06:36:59.894Z,55.72
2024-03-05T06:39:20.170Z,55.64
2024-03-05T06:41:26.563Z,56.08
2024-03-05T06:43:38.415Z,56.24
2024-03-05T06:45:44.377Z,56.27
2024-03-05T06:48:07.212Z,56.56
2024-03-05T06:50:21.128Z,56.69
2024-03-05T06:52:42.341Z,56.67
2024-03-05T06:55:03.557Z,56.69
2024-03-05T06:57:08.653Z,56.04
2024-03-05T06:59:11.949Z,56.10
2024-03-05T07:01:21.859Z,56.33
2024-03-05T07:03:26.718Z,55.03
2024-03-05T07:05:30.138Z,54.79
2024-03-05T07:07:34.764Z,54.61
2024-03-05T07:09:38.606Z,55.14
2024-03-05T07:11:41.391Z,54.44
2024-03-05T07:13:50.024Z,54.90
2024-03-05T07:15:53.244Z,55.07
2024-03-05T07:17:55.958Z,55.65
2024-03-05T07:19:59.440Z,55.64
2024-03-05T07:22:02.265Z,55.20
2024-03-05T07:24:05.475Z,54.91
2024-03-05T07:26:08.526Z,55.42
2024-03-05T07:28:14.281Z,55.75
2024-03-05T07:30:19.029Z,56.05
2024-03-05T07:32:21.744Z,56.22
2024-03-05T07:34:24.472Z,55.79
2024-03-05T07:36:27.326Z,55.68
2024-03-05T07:38:30.056Z,56.28
2024-03-05T07:40:32.802Z,56.02
2024-03-05T07:42:36.991Z,55.98
2024-03-05T07:44:39.706Z,55.40
2024-03-05T07:46:42.521Z,54.76
2024-03-05T07:48:45.280Z,55.37
2024-03-05T07:50:50.276Z,55.38
2024-03-05T07:52:55.412Z,56.44
2024-03-05T07:54:59.064Z,57.15
2024-03-05T07:57:02.917Z,56.80
2024-03-05T07:59:06.814Z,55.90
2024-03-05T08:01:09.704Z,55.46
2024-03-05T08:03:12.673Z,56.01
2024-03-05T08:05:22.624Z,55.48
2024-03-05T08:07:25.461Z,55.99
2024-03-05T08:09:28.221Z,56.08
2024-03-05T08:11:31.378Z,55.80
2024-03-05T08:13:37.059Z,55.10
2024-03-05T08:15:40.016Z,54.76
2024-03-05T08:17:47.464Z,54.60
2024-03-05T08:19:51.496Z,54.05
2024-03-05T08:21:54.271Z,54.34
2024-03-05T08:24:03.772Z,54.41
2024-03-05T08:26:06.713Z,54.58
2024-03-05T08:28:09.505Z,53.79
2024-03-05T08:30:16.682Z,54.59
2024-03-05T08:32:19.788Z,54.37
2024-03-05T08:34:25.488Z,53.48
2024-03-05T08:36:28.937Z,53.17
2024-03-05T08:38:31.705Z,53.77
2024-03-05T08:40:37.021Z,52.70
2024-03-05T08:42:45.687Z,53.07
2024-03-05T08:44:48.996Z,52.44
2024-03-05T08:46:51.868Z,52.51
2024-03-05T08:48:54.613Z,52.43
2024-03-05T08:50:59.920Z,52.77
2024-03-05T08:53:04.292Z,52.32
2024-03-05T08:55:09.743Z,51.78
2024-03-05T08:57:12.480Z,51.70
2024-03-05T08:59:15.785Z,50.94
2024-03-05T09:01:18.656Z,50.60
2024-03-05T09:03:22.295Z,50.18
2024-03-05T09:05:24.988Z,49.95
2024-03-05T09:07:27.812Z,49.54
2024-03-05T09:09:31.717Z,49.57
2024-03-05T09:11:36.620Z,49.32
2024-03-05T09:13:45.218Z,48.77
2024-03-05T09:15:48.226Z,48.11
2024-03-05T09:17:51.063Z,49.10
2024-03-05T09:19:56.762Z,48.64
2024-03-05T09:22:00.938Z,48.76
2024-03-05T09:24:07.838Z,48.39
2024-03-05T09:26:11.829Z,48.51
2024-03-05T09:28:15.149Z,47.88
2024-03-05T09:30:19.775Z,47.66
2024-03-05T09:32:22.670Z,47.61
2024-03-05T09:34:25.724Z,47.75
2024-03-05T09:36:28.553Z,48.13
2024-03-05T09:38:34.189Z,48.01
2024-03-05T09:40:37.518Z,47.06
2024-03-05T09:42:40.349Z,47.25
2024-03-05T09:44:43.148Z,47.11
2024-03-05T09:46:49.617Z,47.11
2024-03-05T09:48:54.063Z,47.19
2024-03-05T09:50:58.113Z,47.19
2024-03-05T09:53:01.579Z,47.57
2024-03-05T09:55:05.790Z,47.86
2024-03-05T09:57:08.824Z,47.76
2024-03-05T09:59:22.165Z,48.23
2024-03-05T10:01:25.484Z,48.16
2024-03-05T10:03:28.251Z,47.69
2024-03-05T10:05:31.669Z,48.28
2024-03-05T10:07:34.533Z,48.39
2024-03-05T10:09:37.386Z,48.59
2024-03-05T10:11:41.906Z,48.69
2024-03-05T10:13:44.879Z,49.15
2024-03-05T10:15:48.914Z,49.43
2024-03-05T10:17:54.904Z,50.03
2024-03-05T10:19:58.124Z,49.58
2024-03-05T10:22:12.179Z,49.09
2024-03-05T10:24:15.383Z,49.39
2024-03-05T10:26:22.470Z,49.05
2024-03-05T10:28:32.244Z,49.41
2024-03-05T10:30:36.274Z,49.50
2024-03-05T10:32:39.864Z,49.17
2024-03-05T10:34:47.462Z,49.36
2024-03-05T10:36:53.237Z,49.42
2024-03-05T10:38:57.028Z,49.26
2024-03-05T10:41:00.897Z,48.75
2024-03-05T10:43:06.365Z,48.72
2024-03-05T10:45:10.658Z,49.28
2024-03-05T10:47:14.512Z,49.51
2024-03-05T10:49:21.089Z,49.71
2024-03-05T10:51:30.556Z,49.32
2024-03-05T10:53:34.396Z,50.12
2024-03-05T10:55:39.227Z,50.43
2024-03-05T10:58:04.024Z,51.00
2024-03-05T11:00:10.249Z,51.62
2024-03-05T11:02:14.989Z,51.53
2024-03-05T11:04:24.050Z,50.88
2024-03-05T11:06:26.978Z,51.14
2024-03-05T11:08:29.721Z,50.72
2024-03-05T11:10:33.121Z,51.08
2024-03-05T11:12:35.949Z,51.39
2024-03-05T11:14:39.429Z,51.46
2024-03-05T11:16:42.315Z,51.79
2024-03-05T11:18:48.160Z,51.70
2024-03-05T11:20:51.027Z,51.52
2024-03-05T11:22:54.379Z,52.18
2024-03-05T11:25:06.678Z,52.38
2024-03-05T11:27:13.670Z,52.77
2024-03-05T11:29:21.597Z,52.93
2024-03-05T11:31:29.200Z,52.94
2024-03-05T11:33:33.473Z,52.54
2024-03-05T11:35:38.327Z,52.89
2024-03-05T11:37:58.971Z,52.98
2024-03-05T11:40:13.810Z,53.35
2024-03-05T11:42:18.463Z,53.00
2024-03-05T11:44:33.725Z,53.24
2024-03-05T11:46:46.529Z,53.73
2024-03-05T11:49:01.550Z,53.97
2024-03-05T11:51:04.849Z,53.79
2024-03-05T11:53:09.213Z,53.77
2024-03-05T11:55:13.373Z,53.99
2024-03-05T11:57:17.822Z,54.32
2024-03-05T11:59:20.469Z,54.34
2024-03-05T12:01:25.690Z,54.87
2024-03-05T12:03:29.199Z,54.94
2024-03-05T12:05:32.018Z,55.35
2024-03-05T12:07:34.780Z,55.33
2024-03-05T12:09:41.516Z,55.51
2024-03-05T12:11:57.681Z,56.42
2024-03-05T12:14:08.855Z,57.42
2024-03-05T12:16:13.609Z,57.28
2024-03-05T12:18:18.632Z,58.03
2024-03-05T12:20:22.063Z,58.22
2024-03-05T12:22:24.841Z,58.04
2024-03-05T12:24:31.801Z,59.02
2024-03-05T12:26:35.574Z,59.32
2024-03-05T12:28:38.514Z,59.68
2024-03-05T12:30:41.851Z,59.51
2024-03-05T12:32:48.736Z,59.97
2024-03-05T12:34:52.699Z,60.58
2024-03-05T12:36:55.916Z,60.83
2024-03-05T12:38:59.239Z,61.31
2024-03-05T12:41:02.601Z,61.38
2024-03-05T12:43:10.290Z,61.35
2024-03-05T12:45:17.199Z,61.75
2024-03-05T12:47:21.314Z,62.76
2024-03-05T12:49:24.154Z,62.91
2024-03-05T12:51:28.128Z,63.10
2024-03-05T12:53:31.186Z,62.62
2024-03-05T12:55:34.335Z,62.77
2024-03-05T12:57:37.154Z,63.26
2024-03-05T12:59:39.920Z,63.85
2024-03-05T13:01:42.631Z,63.92
2024-03-05T13:03:45.441Z,63.80
2024-03-05T13:05:48.293Z,63.68
2024-03-05T13:07:51.132Z,63.22
2024-03-05T13:09:55.628Z,63.45
2024-03-05T13:11:58.718Z,63.54
2024-03-05T13:14:11.425Z,63.91
2024-03-05T13:16:14.246Z,63.27
2024-03-05T13:18:17.674Z,63.45
2024-03-05T13:20:20.728Z,64.00
2024-03-05T13:22:24.384Z,63.81
2024-03-05T13:24:27.150Z,64.27
2024-03-05T13:26:29.838Z,64.00
2024-03-05T13:28:32.648Z,64.52
2024-03-05T13:30:36.718Z,64.52
2024-03-05T13:32:39.569Z,64.72
2024-03-05T13:34:45.426Z,64.85
2024-03-05T13:36:48.161Z,64.51
2024-03-05T13:38:52.192Z,65.13
2024-03-05T13:40:55.709Z,64.62
2024-03-05T13:42:59.968Z,64.74
2024-03-05T13:45:11.786Z,64.52
2024-03-05T13:47:14.817Z,64.98
2024-03-05T13:49:19.634Z,64.87
2024-03-05T13:51:22.508Z,64.64
2024-03-05T13:53:25.361Z,64.84
2024-03-05T13:55:30.326Z,64.76
2024-03-05T13:57:33.143Z,64.81
2024-03-05T13:59:36.087Z,65.37
2024-03-05T14:01:43.092Z,64.58
2024-03-05T14:03:45.876Z,65.11
2024-03-05T14:05:48.623Z,65.32
2024-03-05T14:07:51.441Z,64.55
2024-03-05T14:09:54.152Z,64.10
2024-03-05T14:11:58.534Z,63.59
2024-03-05T14:14:02.328Z,63.75
2024-03-05T14:16:07.937Z,64.14
2024-03-05T14:18:10.813Z,64.07
2024-03-05T14:20:15.070Z,63.75
2024-03-05T14:22:18.740Z,63.38
2024-03-05T14:24:22.063Z,63.16
2024-03-05T14:26:25.671Z,63.70
2024-03-05T14:28:28.347Z,64.04
2024-03-05T14:30:32.861Z,63.24
2024-03-05T14:32:35.652Z,63.02
2024-03-05T14:34:40.871Z,62.97
2024-03-05T14:36:44.593Z,63.75
2024-03-05T14:38:47.430Z,63.73
2024-03-05T14:40:56.100Z,63.07
2024-03-05T14:42:59.130Z,62.95
2024-03-05T14:45:02.359Z,63.19
2024-03-05T14:47:05.791Z,63.03
2024-03-05T14:49:13.000Z,62.33
2024-03-05T14:51:15.726Z,61.95
2024-03-05T14:53:18.489Z,61.23
2024-03-05T14:55:21.853Z,61.01
2024-03-05T14:57:24.654Z,61.53
2024-03-05T14:59:27.335Z,61.62
2024-03-05T15:01:30.125Z,61.77
2024-03-05T15:03:33.544Z,61.50
2024-03-05T15:05:36.360Z,62.10
2024-03-05T15:07:42.809Z,61.51
2024-03-05T15:09:46.763Z,62.17
2024-03-05T15:11:49.508Z,61.85
2024-03-05T15:13:53.137Z,61.46
2024-03-05T15:15:56.818Z,60.96
2024-03-05T15:17:59.490Z,61.68
2024-03-05T15:20:02.424Z,61.57
2024-03-05T15:22:07.641Z,60.82
2024-03-05T15:24:12.179Z,60.10
2024-03-05T15:26:16.844Z,59.34
2024-03-05T15:28:19.711Z,58.66
2024-03-05T15:30:22.335Z,57.60
2024-03-05T15:32:25.041Z,57.76
2024-03-05T15:34:27.939Z,57.07
2024-03-05T15:36:32.552Z,58.08
2024-03-05T15:38:36.261Z,58.27
2024-03-05T15:40:39.250Z,58.69
2024-03-05T15:42:55.542Z,58.74
2024-03-05T15:44:58.193Z,58.80
2024-03-05T15:47:01.415Z,58.66
2024-03-05T15:49:04.872Z,59.06
2024-03-05T15:51:07.815Z,58.50
2024-03-05T15:53:10.556Z,59.05
2024-03-05T15:55:13.358Z,59.63
2024-03-05T15:57:21.215Z,59.56
2024-03-05T15:59:42.514Z,60.04
2024-03-05T16:01:45.236Z,60.29
2024-03-05T16:03:58.227Z,60.42
2024-03-05T16:06:18.679Z,60.52
2024-03-05T16:08:25.530Z,60.71
2024-03-05T16:10:35.595Z,60.88
2024-03-05T16:12:43.769Z,59.99
2024-03-05T16:14:47.388Z,60.56
2024-03-05T16:16:50.084Z,60.84
2024-03-05T16:18:52.866Z,61.43
2024-03-05T16:20:55.607Z,61.79
2024-03-05T16:22:58.534Z,61.71
2024-03-05T16:25:01.363Z,61.71
2024-03-05T16:27:04.693Z,62.01
2024-03-05T16:29:07.919Z,62.40
2024-03-05T16:31:14.092Z,61.95
2024-03-05T16:33:17.487Z,62.41
2024-03-05T16:35:21.130Z,62.79
2024-03-05T16:37:24.024Z,63.31
2024-03-05T16:39:26.632Z,63.12
2024-03-05T16:41:29.358Z,63.21
2024-03-05T16:43:32.099Z,63.15
2024-03-05T16:45:36.298Z,63.42
2024-03-05T16:47:44.041Z,63.56
2024-03-05T16:49:46.883Z,63.00
2024-03-05T16:51:50.129Z,63.50
2024-03-05T16:53:54.129Z,63.68
2024-03-05T16:55:57.343Z,63.83
2024-03-05T16:58:00.418Z,63.99
2024-03-05T17:00:05.405Z,64.15
2024-03-05T17:02:09.634Z,64.08
2024-03-05T17:04:15.793Z,64.17
2024-03-05T17:06:20.496Z,64.71
2024-03-05T17:08:25.202Z,64.38
2024-03-05T17:10:30.273Z,64.54
2024-03-05T17:12:35.691Z,65.37
2024-03-05T17:14:39.315Z,65.48
2024-03-05T17:16:46.343Z,65.52
2024-03-05T17:18:50.513Z,65.79
2024-03-05T17:20:54.860Z,65.98
2024-03-05T17:22:58.770Z,65.78
2024-03-05T17:25:02.532Z,65.69
2024-03-05T17:27:06.730Z,65.83
2024-03-05T17:29:11.445Z,66.04
2024-03-05T17:31:14.321Z,66.02
2024-03-05T17:33:17.643Z,66.24
2024-03-05T17:35:20.699Z,66.17
2024-03-05T17:37:24.051Z,66.12
2024-03-05T17:39:26.877Z,66.32
2024-03-05T17:41:30.424Z,66.16
2024-03-05T17:43:33.191Z,66.57
2024-03-05T17:45:36.162Z,66.15
2024-03-05T17:47:40.576Z,66.12
2024-03-05T17:49:43.612Z,65.55
2024-03-05T17:51:46.512Z,65.81
2024-03-05T17:53:49.644Z,66.17
2024-03-05T17:55:52.414Z,66.03
2024-03-05T17:57:55.259Z,65.94
2024-03-05T18:00:00.664Z,65.94
2024-03-05T18:02:04.159Z,66.18
2024-03-05T18:04:06.891Z,66.40
2024-03-05T18:06:09.666Z,66.11
2024-03-05T18:08:13.180Z,66.59
2024-03-05T18:10:15.964Z,66.13
2024-03-05T18:12:18.843Z,66.31
2024-03-05T18:14:23.312Z,65.87
2024-03-05T18:16:26.197Z,66.31
2024-03-05T18:18:28.995Z,66.36
2024-03-05T18:20:31.821Z,66.24
2024-03-05T18:22:34.500Z,65.83
2024-03-05T18:24:37.905Z,66.04
2024-03-05T18:26:40.529Z,65.84
2024-03-05T18:28:44.578Z,65.55
2024-03-05T18:30:49.184Z,65.95
2024-03-05T18:32:52.664Z,66.06
2024-03-05T18:34:55.545Z,65.96
2024-03-05T18:36:58.155Z,66.06
2024-03-05T18:39:01.454Z,65.87
2024-03-05T18:41:04.482Z,65.84
2024-03-05T18:43:07.225Z,66.06
2024-03-05T18:45:13.108Z,66.03
2024-03-05T18:47:16.373Z,66.37
2024-03-05T18:49:21.295Z,65.89
2024-03-05T18:51:24.039Z,66.50
2024-03-05T18:53:36.188Z,66.73
2024-03-05T18:55:47.291Z,66.96
2024-03-05T18:57:50.049Z,66.63
2024-03-05T18:59:52.947Z,66.83
2024-03-05T19:01:55.794Z,66.98
2024-03-05T19:04:05.105Z,66.89
2024-03-05T19:06:09.976Z,67.24
2024-03-05T19:08:12.712Z,67.05
2024-03-05T19:10:19.709Z,67.41
2024-03-05T19:12:22.874Z,67.65
2024-03-05T19:14:25.650Z,67.94
2024-03-05T19:16:28.610Z,67.86
2024-03-05T19:18:31.871Z,68.06
2024-03-05T19:20:34.753Z,68.37
2024-03-05T19:22:38.008Z,68.17
2024-03-05T19:24:40.880Z,69.06
2024-03-05T19:26:43.715Z,68.60
2024-03-05T19:28:46.679Z,68.94
2024-03-05T19:30:49.411Z,69.51
2024-03-05T19:32:52.668Z,69.58
2024-03-05T19:34:55.410Z,69.83
2024-03-05T19:36:58.666Z,69.52
2024-03-05T19:39:01.334Z,69.65
2024-03-05T19:41:04.278Z,70.04
2024-03-05T19:43:08.450Z,69.97
2024-03-05T19:45:12.311Z,70.94
2024-03-05T19:47:16.315Z,70.88
2024-03-05T19:49:19.008Z,70.56
2024-03-05T19:51:21.690Z,70.93
2024-03-05T19:53:24.634Z,71.21
2024-03-05T19:55:27.416Z,71.09
2024-03-05T19:57:30.184Z,70.76
2024-03-05T19:59:32.823Z,71.01
2024-03-05T20:01:35.982Z,70.84
2024-03-05T20:03:40.054Z,70.93
2024-03-05T20:05:42.963Z,70.91
2024-03-05T20:07:45.860Z,70.98
2024-03-05T20:09:48.868Z,71.11
2024-03-05T20:11:51.797Z,71.06
2024-03-05T20:13:58.959Z,70.98
2024-03-05T20:16:01.889Z,71.31
2024-03-05T20:18:05.748Z,70.67
2024-03-05T20:20:10.936Z,70.68
2024-03-05T20:22:13.894Z,70.82
2024-03-05T20:24:16.820Z,70.73
2024-03-05T20:26:20.365Z,70.82
2024-03-05T20:28:23.489Z,71.32
2024-03-05T20:30:26.438Z,71.00
2024-03-05T20:32:30.688Z,70.71
2024-03-05T20:34:34.097Z,71.66
2024-03-05T20:36:38.186Z,71.06
2024-03-05T20:38:42.638Z,71.11
2024-03-05T20:40:45.485Z,70.94
2024-03-05T20:42:48.265Z,70.95
2024-03-05T20:44:51.032Z,71.34
2024-03-05T20:46:53.702Z,71.19
2024-03-05T20:48:56.556Z,72.08
2024-03-05T20:50:59.581Z,71.50
2024-03-05T20:53:02.565Z,71.78
2024-03-05T20:55:05.737Z,71.50
2024-03-05T20:57:08.537Z,71.76
2024-03-05T20:59:11.493Z,71.38
2024-03-05T21:01:16.270Z,71.65
2024-03-05T21:03:22.932Z,72.12
2024-03-05T21:05:25.798Z,71.64
2024-03-05T21:07:28.529Z,71.33
2024-03-05T21:09:31.300Z,71.62
2024-03-05T21:11:34.536Z,71.10
2024-03-05T21:13:43.082Z,71.22
2024-03-05T21:15:46.355Z,71.13
2024-03-05T21:17:49.254Z,71.70
2024-03-05T21:19:51.973Z,71.74
2024-03-05T21:21:54.924Z,71.43
2024-03-05T21:23:58.097Z,71.81
2024-03-05T21:26:13.958Z,71.70
2024-03-05T21:28:27.745Z,71.45
2024-03-05T21:30:30.465Z,71.59
2024-03-05T21:32:33.550Z,71.24
2024-03-05T21:34:36.411Z,71.29
2024-03-05T21:36:40.430Z,71.57
2024-03-05T21:38:43.158Z,71.10
2024-03-05T21:40:46.304Z,71.02
2024-03-05T21:42:49.081Z,70.74
2024-03-05T21:44:51.791Z,70.57
2024-03-05T21:46:54.480Z,71.38
2024-03-05T21:48:57.517Z,71.47
2024-03-05T21:51:06.539Z,71.51
2024-03-05T21:53:14.902Z,71.45
2024-03-05T21:55:17.900Z,71.23
2024-03-05T21:57:20.966Z,71.36
2024-03-05T21:59:23.711Z,71.68
2024-03-05T22:01:26.419Z,71.13
2024-03-05T22:03:30.144Z,70.89
2024-03-05T22:05:33.742Z,70.45
2024-03-05T22:07:37.062Z,70.58
2024-03-05T22:09:41.820Z,70.41
2024-03-05T22:11:44.681Z,70.41
2024-03-05T22:13:48.678Z,69.91
2024-03-05T22:15:51.728Z,69.86
2024-03-05T22:17:55.189Z,68.11
2024-03-05T22:19:57.978Z,68.49
2024-03-05T22:22:00.727Z,68.76
2024-03-05T22:24:04.184Z,69.28
2024-03-05T22:26:07.950Z,69.58
2024-03-05T22:28:13.949Z,69.45
2024-03-05T22:30:16.874Z,69.32
2024-03-05T22:32:19.847Z,69.27
2024-03-05T22:34:22.661Z,68.90
2024-03-05T22:36:25.516Z,69.43
2024-03-05T22:38:28.297Z,68.57
2024-03-05T22:40:31.275Z,68.13
2024-03-05T22:42:36.962Z,68.56
2024-03-05T22:44:40.929Z,68.39
2024-03-05T22:46:43.949Z,67.81
2024-03-05T22:48:46.756Z,67.58
2024-03-05T22:50:53.206Z,67.87
2024-03-05T22:52:56.056Z,67.96
2024-03-05T22:55:00.206Z,68.59
2024-03-05T22:57:04.265Z,67.92
2024-03-05T22:59:07.071Z,68.31
2024-03-05T23:01:11.264Z,68.26
2024-03-05T23:03:14.093Z,67.83
2024-03-05T23:05:17.499Z,68.14
2024-03-05T23:07:20.464Z,68.36
2024-03-05T23:09:23.300Z,68.47
2024-03-05T23:11:26.244Z,69.07
2024-03-05T23:13:29.113Z,69.25
2024-03-05T23:15:31.996Z,69.46
2024-03-05T23:17:34.970Z,69.34
2024-03-05T23:19:40.000Z,69.25
2024-03-05T23:21:42.778Z,69.60
2024-03-05T23:23:46.142Z,69.80
2024-03-05T23:25:49.447Z,69.28
2024-03-05T23:27:52.229Z,69.65
2024-03-05T23:29:55.060Z,69.32
2024-03-05T23:31:57.828Z,69.49
2024-03-05T23:34:00.588Z,69.43
2024-03-05T23:36:03.862Z,69.10
2024-03-05T23:38:08.034Z,69.04
2024-03-05T23:40:12.562Z,69.15
2024-03-05T23:42:15.864Z,68.89
2024-03-05T23:44:18.951Z,68.41
2024-03-05T23:46:22.354Z,68.50
2024-03-05T23:48:25.258Z,68.38
2024-03-05T23:50:28.078Z,68.18
2024-03-05T23:52:30.854Z,67.95
2024-03-05T23:54:35.301Z,68.43
2024-03-05T23:56:39.327Z,68.47
2024-03-05T23:58:43.304Z,67.89
